Terminal Aerodrome Forecast
Issued by NWS Pittsburgh, PA

Current Version | Previous Version | Text Only | Print | Product List | Glossary Off
Versions: 1 2 3 4 5 6 7 8 9 10 11 12 13 14 15 16 17 18 19 20 21 22 23 24 25 26 27 28 29 30 31 32 33 34

000
FTUS41 KPBZ 191500 AAA
TAFPIT
TAF AMD
KPIT 191523Z 1915/2018 12005KT 3SM -SHRA BR SCT006 OVC015
      TEMPO 1915/1917 BKN006
     FM191800 16008KT P6SM -SHRA OVC020
     FM192100 17005KT P6SM VCSH BKN035
     FM200800 18003KT 3SM BR BKN040
     FM201400 19005KT P6SM BKN035=

USA.gov is the U.S. government's official web portal to all federal, state and local government web resources and services.